createdAt,value
2018-12-25T00:00:35.481Z,1022.96
2018-12-25T00:01:45.420Z,1023.07
2018-12-25T00:02:55.386Z,1023.03
2018-12-25T00:04:05.336Z,1023.06
2018-12-25T00:05:15.308Z,1023.04
2018-12-25T00:06:25.323Z,1023.02
2018-12-25T00:07:34.765Z,1022.98
2018-12-25T00:08:44.449Z,1023.06
2018-12-25T00:09:53.880Z,1023
2018-12-25T00:11:03.316Z,1022.97
2018-12-25T00:12:13.112Z,1023.05
2018-12-25T00:13:23.080Z,1023.02
2018-12-25T00:14:32.761Z,1022.98
2018-12-25T00:15:42.565Z,1022.96
2018-12-25T00:16:52.516Z,1022.93
2018-12-25T00:18:02.456Z,1022.89
2018-12-25T00:19:11.652Z,1022.88
2018-12-25T00:20:21.353Z,1022.86
2018-12-25T00:21:31.284Z,1022.83
2018-12-25T00:22:41.207Z,1023.04
2018-12-25T00:23:51.148Z,1022.92
2018-12-25T00:25:00.832Z,1022.95
2018-12-25T00:26:10.857Z,1022.93
2018-12-25T00:27:20.800Z,1022.86
2018-12-25T00:28:30.595Z,1022.91
2018-12-25T00:29:40.033Z,1022.87
2018-12-25T00:30:49.968Z,1022.89
2018-12-25T00:31:59.669Z,1022.81
2018-12-25T00:33:09.619Z,1022.97
2018-12-25T00:34:19.311Z,1022.82
2018-12-25T00:35:29.243Z,1022.84
2018-12-25T00:36:39.178Z,1022.8
2018-12-25T00:37:49.115Z,1022.85
2018-12-25T00:38:58.801Z,1022.84
2018-12-25T00:40:08.735Z,1022.85
2018-12-25T00:41:18.667Z,1022.83
2018-12-25T00:42:28.449Z,1022.73
2018-12-25T00:43:38.400Z,1022.82
2018-12-25T00:44:48.335Z,1022.78
2018-12-25T00:45:58.011Z,1022.71
2018-12-25T00:47:07.693Z,1022.78
2018-12-25T00:48:17.215Z,1022.69
2018-12-25T00:49:27.155Z,1022.85
2018-12-25T00:50:36.589Z,1022.66
2018-12-25T00:51:46.536Z,1022.8
2018-12-25T00:52:56.227Z,1022.7
2018-12-25T00:54:05.903Z,1022.71
2018-12-25T00:55:15.597Z,1022.72
2018-12-25T00:56:25.025Z,1022.78
2018-12-25T00:57:34.723Z,1022.65
2018-12-25T00:58:44.405Z,1022.81
2018-12-25T00:59:54.085Z,1022.85
2018-12-25T01:01:04.126Z,1023.01
2018-12-25T01:02:13.825Z,1022.69
2018-12-25T01:03:23.757Z,1022.95
2018-12-25T01:04:33.711Z,1022.94
2018-12-25T01:05:43.175Z,1022.85
2018-12-25T01:06:53.007Z,1023.04
2018-12-25T01:08:02.794Z,1022.8
2018-12-25T01:09:12.222Z,1022.91
2018-12-25T01:10:21.931Z,1022.79
2018-12-25T01:11:31.868Z,1022.9
2018-12-25T01:12:41.324Z,1022.84
2018-12-25T01:13:51.259Z,1022.86
2018-12-25T01:15:01.199Z,1022.83
2018-12-25T01:16:11.138Z,1022.75
2018-12-25T01:17:21.073Z,1022.93
2018-12-25T01:18:31.020Z,1022.91
2018-12-25T01:19:40.706Z,1022.85
2018-12-25T01:20:50.398Z,1023
2018-12-25T01:22:00.370Z,1022.79
2018-12-25T01:23:10.317Z,1022.83
2018-12-25T01:24:20.251Z,1022.98
2018-12-25T01:25:29.940Z,1022.87
2018-12-25T01:26:39.633Z,1022.84
2018-12-25T01:27:49.634Z,1023.15
2018-12-25T01:28:59.104Z,1022.9
2018-12-25T01:30:09.102Z,1023.15
2018-12-25T01:31:19.062Z,1022.84
2018-12-25T01:32:29.022Z,1022.96
2018-12-25T01:33:38.724Z,1022.85
2018-12-25T01:34:48.423Z,1022.9
2018-12-25T01:35:58.375Z,1022.91
2018-12-25T01:37:08.062Z,1023.01
2018-12-25T01:38:17.989Z,1023.02
2018-12-25T01:39:27.685Z,1023
2018-12-25T01:40:36.875Z,1022.96
2018-12-25T01:41:46.579Z,1022.93
2018-12-25T01:42:56.519Z,1023.01
2018-12-25T01:44:05.968Z,1022.87
2018-12-25T01:45:15.911Z,1022.97
2018-12-25T01:46:25.961Z,1022.88
2018-12-25T01:47:35.913Z,1023.02
2018-12-25T01:48:45.853Z,1022.95
2018-12-25T01:49:55.807Z,1023.01
2018-12-25T01:51:05.747Z,1022.97
2018-12-25T01:52:15.685Z,1022.9
2018-12-25T01:53:25.380Z,1023
2018-12-25T01:54:35.317Z,1022.99
2018-12-25T01:55:45.257Z,1023.08
2018-12-25T01:56:54.945Z,1023
2018-12-25T01:58:04.627Z,1022.95
2018-12-25T01:59:14.563Z,1023.06
2018-12-25T02:00:24.512Z,1023
2018-12-25T02:01:34.441Z,1023.1
2018-12-25T02:02:44.132Z,1022.99
2018-12-25T02:03:54.076Z,1022.99
2018-12-25T02:05:03.520Z,1023.07
2018-12-25T02:06:13.220Z,1023.06
2018-12-25T02:07:23.159Z,1022.99
2018-12-25T02:08:33.095Z,1022.97
2018-12-25T02:09:43.045Z,1022.96
2018-12-25T02:10:52.978Z,1022.87
2018-12-25T02:12:04.937Z,1022.86
2018-12-25T02:13:14.882Z,1022.96
2018-12-25T02:14:24.566Z,1022.84
2018-12-25T02:15:34.571Z,1022.82
2018-12-25T02:16:44.526Z,1022.97
2018-12-25T02:17:54.225Z,1022.88
2018-12-25T02:19:04.185Z,1022.8
2018-12-25T02:20:14.311Z,1022.81
2018-12-25T02:21:23.984Z,1022.95
2018-12-25T02:22:33.928Z,1022.88
2018-12-25T02:23:43.867Z,1022.87
2018-12-25T02:24:53.884Z,1022.81
2018-12-25T02:26:03.822Z,1022.77
2018-12-25T02:27:13.505Z,1022.89
2018-12-25T02:28:23.438Z,1022.74
2018-12-25T02:29:33.391Z,1022.82
2018-12-25T02:30:43.334Z,1022.77
2018-12-25T02:31:53.367Z,1022.8
2018-12-25T02:33:03.320Z,1022.8
2018-12-25T02:34:12.769Z,1022.83
2018-12-25T02:35:22.208Z,1022.77
2018-12-25T02:36:31.653Z,1022.83
2018-12-25T02:37:41.648Z,1022.72
2018-12-25T02:38:51.343Z,1022.72
2018-12-25T02:40:01.277Z,1022.74
2018-12-25T02:41:11.223Z,1022.7
2018-12-25T02:42:21.187Z,1022.8
2018-12-25T02:43:30.885Z,1022.7
2018-12-25T02:44:40.914Z,1022.68
2018-12-25T02:45:50.626Z,1022.72
2018-12-25T02:47:00.583Z,1022.63
2018-12-25T02:48:10.543Z,1022.66
2018-12-25T02:49:20.241Z,1022.68
2018-12-25T02:50:30.180Z,1022.57
2018-12-25T02:51:40.125Z,1022.69
2018-12-25T02:52:50.092Z,1022.73
2018-12-25T02:54:00.041Z,1022.64
2018-12-25T02:55:09.993Z,1022.82
2018-12-25T02:56:19.956Z,1022.69
2018-12-25T02:57:30.058Z,1022.68
2018-12-25T02:58:40.029Z,1022.6
2018-12-25T02:59:49.994Z,1022.71
2018-12-25T03:00:59.970Z,1022.66
2018-12-25T03:02:09.719Z,1022.71
2018-12-25T03:03:19.655Z,1022.8
2018-12-25T03:04:29.600Z,1022.75
2018-12-25T03:05:39.549Z,1022.51
2018-12-25T03:06:49.509Z,1022.61
2018-12-25T03:07:59.209Z,1022.58
2018-12-25T03:09:09.608Z,1022.59
2018-12-25T03:10:19.357Z,1022.52
2018-12-25T03:11:29.317Z,1022.49
2018-12-25T03:12:39.015Z,1022.47
2018-12-25T03:13:48.953Z,1022.41
2018-12-25T03:14:58.413Z,1022.52
2018-12-25T03:16:08.363Z,1022.43
2018-12-25T03:17:18.058Z,1022.65
2018-12-25T03:18:27.743Z,1022.52
2018-12-25T03:19:37.431Z,1022.46
2018-12-25T03:20:47.398Z,1022.48
2018-12-25T03:21:57.334Z,1022.47
2018-12-25T03:23:06.783Z,1022.4
2018-12-25T03:24:16.482Z,1022.53
2018-12-25T03:25:26.427Z,1022.41
2018-12-25T03:26:36.248Z,1022.41
2018-12-25T03:27:46.207Z,1022.52
2018-12-25T03:28:56.160Z,1022.52
2018-12-25T03:30:05.855Z,1022.41
2018-12-25T03:31:15.818Z,1022.76
2018-12-25T03:32:25.974Z,1022.42
2018-12-25T03:33:35.688Z,1022.71
2018-12-25T03:34:45.635Z,1022.41
2018-12-25T03:35:55.328Z,1022.36
2018-12-25T03:37:04.797Z,1022.35
2018-12-25T03:38:14.004Z,1022.45
2018-12-25T03:39:23.718Z,1022.43
2018-12-25T03:40:33.673Z,1022.46
2018-12-25T03:41:43.418Z,1022.43
2018-12-25T03:42:53.370Z,1022.42
2018-12-25T03:44:03.336Z,1022.52
2018-12-25T03:45:13.312Z,1022.19
2018-12-25T03:46:23.007Z,1022.37
2018-12-25T03:47:32.715Z,1022.3
2018-12-25T03:48:42.669Z,1022.31
2018-12-25T03:49:52.607Z,1022.42
2018-12-25T03:51:13.289Z,1022.29
2018-12-25T03:52:23.241Z,1022.29
2018-12-25T03:53:33.197Z,1022.55
2018-12-25T03:54:43.159Z,1022.27
2018-12-25T03:55:53.110Z,1022.3
2018-12-25T03:57:03.093Z,1022.47
2018-12-25T03:58:12.917Z,1022.6
2018-12-25T03:59:22.362Z,1022.46
2018-12-25T04:00:32.053Z,1022.35
2018-12-25T04:01:42.006Z,1022.44
2018-12-25T04:02:51.961Z,1022.34
2018-12-25T04:04:01.915Z,1022.37
2018-12-25T04:05:11.885Z,1022.41
2018-12-25T04:06:21.837Z,1022.43
2018-12-25T04:07:31.602Z,1022.44
2018-12-25T04:08:41.657Z,1022.29
2018-12-25T04:09:51.333Z,1022.23
2018-12-25T04:11:01.029Z,1022.28
2018-12-25T04:12:10.733Z,1022.28
2018-12-25T04:13:20.450Z,1022.34
2018-12-25T04:14:30.184Z,1022.24
2018-12-25T04:15:39.893Z,1022.11
2018-12-25T04:16:49.821Z,1022.19
2018-12-25T04:17:59.518Z,1022.36
2018-12-25T04:19:09.238Z,1022.22
2018-12-25T04:20:19.834Z,1022.12
2018-12-25T04:21:29.749Z,1022.24
2018-12-25T04:22:39.682Z,1022.23
2018-12-25T04:23:49.394Z,1022.13
2018-12-25T04:24:59.389Z,1022.15
2018-12-25T04:26:09.346Z,1022.07
2018-12-25T04:27:18.806Z,1022.03
2018-12-25T04:28:28.509Z,1022.19
2018-12-25T04:29:38.207Z,1022.14
2018-12-25T04:30:48.148Z,1022.36
2018-12-25T04:31:58.101Z,1022.27
2018-12-25T04:33:08.038Z,1022.09
2018-12-25T04:34:17.977Z,1022.25
2018-12-25T04:35:27.912Z,1022.08
2018-12-25T04:36:37.904Z,1022.08
2018-12-25T04:37:47.855Z,1022.21
2018-12-25T04:38:57.049Z,1022.04
2018-12-25T04:40:07.095Z,1022.09
2018-12-25T04:41:16.782Z,1022.16
2018-12-25T04:42:26.472Z,1022.23
2018-12-25T04:43:36.461Z,1022.23
2018-12-25T04:44:46.149Z,1022.38
2018-12-25T04:45:55.844Z,1022.22
2018-12-25T04:47:05.548Z,1022.2
2018-12-25T04:48:15.498Z,1022.39
2018-12-25T04:49:25.434Z,1022.18
2018-12-25T04:50:35.377Z,1022.36
2018-12-25T04:51:45.313Z,1022.21
2018-12-25T04:52:55.248Z,1022.19
2018-12-25T04:54:05.193Z,1022.34
2018-12-25T04:55:15.153Z,1022.41
2018-12-25T04:56:25.092Z,1022.34
2018-12-25T04:57:35.034Z,1022.28
2018-12-25T04:58:44.970Z,1022.29
2018-12-25T04:59:54.904Z,1022.53
2018-12-25T05:01:04.858Z,1022.51
2018-12-25T05:02:14.536Z,1022.38
2018-12-25T05:03:23.968Z,1022.37
2018-12-25T05:04:33.663Z,1022.35
2018-12-25T05:05:43.368Z,1022.43
2018-12-25T05:06:53.064Z,1022.36
2018-12-25T05:08:03.072Z,1022.39
2018-12-25T05:09:13.009Z,1022.35
2018-12-25T05:10:22.952Z,1022.33
2018-12-25T05:11:32.890Z,1022.29
2018-12-25T05:12:42.832Z,1022.36
2018-12-25T05:13:52.546Z,1022.34
2018-12-25T05:15:02.479Z,1022.42
2018-12-25T05:16:12.404Z,1022.47
2018-12-25T05:17:22.094Z,1022.42
2018-12-25T05:18:32.035Z,1022.41
2018-12-25T05:19:41.990Z,1022.34
2018-12-25T05:20:51.920Z,1022.4
2018-12-25T05:22:01.851Z,1022.44
2018-12-25T05:23:11.790Z,1022.32
2018-12-25T05:24:21.238Z,1022.41
2018-12-25T05:25:31.194Z,1022.37
2018-12-25T05:26:40.628Z,1022.43
2018-12-25T05:27:50.320Z,1022.5
2018-12-25T05:28:59.758Z,1022.44
2018-12-25T05:30:09.461Z,1022.52
2018-12-25T05:31:19.150Z,1022.41
2018-12-25T05:32:28.844Z,1022.45
2018-12-25T05:33:38.786Z,1022.42
2018-12-25T05:34:48.744Z,1022.48
2018-12-25T05:35:58.699Z,1022.49
2018-12-25T05:37:08.140Z,1022.6
2018-12-25T05:38:18.083Z,1022.61
2018-12-25T05:39:28.020Z,1022.69
2018-12-25T05:40:37.946Z,1022.62
2018-12-25T05:41:47.890Z,1022.69
2018-12-25T05:42:57.845Z,1022.61
2018-12-25T05:44:07.776Z,1022.57
2018-12-25T05:45:17.712Z,1022.63
2018-12-25T05:46:27.658Z,1022.57
2018-12-25T05:47:37.358Z,1022.57
2018-12-25T05:48:47.039Z,1022.6
2018-12-25T05:49:56.982Z,1022.57
2018-12-25T05:51:06.934Z,1022.54
2018-12-25T05:52:16.873Z,1022.47
2018-12-25T05:53:26.564Z,1022.55
2018-12-25T05:54:36.516Z,1022.61
2018-12-25T05:55:46.447Z,1022.64
2018-12-25T05:56:56.138Z,1022.55
2018-12-25T05:58:06.088Z,1022.49
2018-12-25T05:59:16.036Z,1022.51
2018-12-25T06:00:25.987Z,1022.65
2018-12-25T06:01:35.421Z,1022.46
2018-12-25T06:02:45.109Z,1022.42
2018-12-25T06:03:54.792Z,1022.46
2018-12-25T06:05:04.831Z,1022.59
2018-12-25T06:06:14.767Z,1022.49
2018-12-25T06:07:24.458Z,1022.38
2018-12-25T06:08:34.392Z,1022.35
2018-12-25T06:09:45.427Z,1022.59
2018-12-25T06:10:55.365Z,1022.56
2018-12-25T06:12:05.070Z,1022.46
2018-12-25T06:13:14.768Z,1022.66
2018-12-25T06:14:24.704Z,1022.54
2018-12-25T06:15:34.382Z,1022.54
2018-12-25T06:16:44.323Z,1022.5
2018-12-25T06:17:54.234Z,1022.51
2018-12-25T06:19:03.931Z,1022.47
2018-12-25T06:20:13.616Z,1022.42
2018-12-25T06:21:23.400Z,1022.47
2018-12-25T06:22:33.334Z,1022.44
2018-12-25T06:23:43.268Z,1022.52
2018-12-25T06:24:52.942Z,1022.53
2018-12-25T06:26:02.646Z,1022.5
2018-12-25T06:27:12.094Z,1022.49
2018-12-25T06:28:22.139Z,1022.74
2018-12-25T06:29:32.082Z,1022.52
2018-12-25T06:30:41.512Z,1022.66
2018-12-25T06:31:51.471Z,1022.58
2018-12-25T06:33:00.903Z,1022.64
2018-12-25T06:34:10.606Z,1022.5
2018-12-25T06:35:20.281Z,1022.58
2018-12-25T06:36:30.220Z,1022.58
2018-12-25T06:37:40.172Z,1022.59
2018-12-25T06:38:50.105Z,1022.51
2018-12-25T06:39:59.793Z,1022.45
2018-12-25T06:41:09.722Z,1022.39
2018-12-25T06:42:19.653Z,1022.27
2018-12-25T06:43:29.581Z,1022.47
2018-12-25T06:44:39.331Z,1022.3
2018-12-25T06:45:49.287Z,1022.17
2018-12-25T06:46:59.227Z,1022.2
2018-12-25T06:48:09.187Z,1022.34
2018-12-25T06:49:19.116Z,1022.19
2018-12-25T06:50:28.548Z,1022.13
2018-12-25T06:51:38.476Z,1022.27
2018-12-25T06:52:48.174Z,1022.13
2018-12-25T06:53:57.606Z,1022.19
2018-12-25T06:55:07.546Z,1022.15
2018-12-25T06:56:16.986Z,1022.17
2018-12-25T06:57:26.932Z,1022.18
2018-12-25T06:58:36.870Z,1022.23
2018-12-25T06:59:46.312Z,1022.27
2018-12-25T07:00:56.259Z,1022.29
2018-12-25T07:02:05.951Z,1022.4
2018-12-25T07:03:15.387Z,1022.25
2018-12-25T07:04:25.071Z,1022.15
2018-12-25T07:05:34.998Z,1022.2
2018-12-25T07:06:44.680Z,1022.15
2018-12-25T07:07:55.582Z,1022.1
2018-12-25T07:09:05.521Z,1022.18
2018-12-25T07:10:15.757Z,1022.21
2018-12-25T07:11:25.192Z,1022.31
2018-12-25T07:12:34.873Z,1022
2018-12-25T07:13:44.554Z,1021.98
2018-12-25T07:14:54.509Z,1022.11
2018-12-25T07:16:03.705Z,1021.96
2018-12-25T07:17:13.393Z,1021.89
2018-12-25T07:18:22.828Z,1022.01
2018-12-25T07:19:32.773Z,1021.83
2018-12-25T07:20:42.712Z,1021.98
2018-12-25T07:21:52.417Z,1021.95
2018-12-25T07:23:02.358Z,1021.86
2018-12-25T07:24:12.053Z,1021.93
2018-12-25T07:25:21.499Z,1021.94
2018-12-25T07:26:31.189Z,1021.89
2018-12-25T07:27:40.627Z,1021.83
2018-12-25T07:28:50.334Z,1021.82
2018-12-25T07:30:00.294Z,1021.94
2018-12-25T07:31:09.995Z,1021.85
2018-12-25T07:32:19.429Z,1021.94
2018-12-25T07:33:29.379Z,1021.89
2018-12-25T07:34:39.404Z,1021.81
2018-12-25T07:35:49.338Z,1021.77
2018-12-25T07:36:59.291Z,1021.75
2018-12-25T07:38:09.246Z,1021.71
2018-12-25T07:39:18.930Z,1021.76
2018-12-25T07:40:28.620Z,1021.77
2018-12-25T07:41:38.572Z,1021.73
2018-12-25T07:42:48.281Z,1021.8
2018-12-25T07:43:57.964Z,1021.67
2018-12-25T07:45:07.664Z,1021.69
2018-12-25T07:46:17.596Z,1021.77
2018-12-25T07:47:27.529Z,1021.84
2018-12-25T07:48:36.975Z,1021.65
2018-12-25T07:49:46.430Z,1021.69
2018-12-25T07:50:56.368Z,1021.7
2018-12-25T07:52:06.308Z,1021.68
2018-12-25T07:53:15.984Z,1021.59
2018-12-25T07:54:25.914Z,1021.69
2018-12-25T07:55:35.354Z,1021.77
2018-12-25T07:56:45.048Z,1021.63
2018-12-25T07:57:54.975Z,1021.79
2018-12-25T07:59:04.659Z,1021.79
2018-12-25T08:00:14.354Z,1021.66
2018-12-25T08:01:24.849Z,1021.77
2018-12-25T08:02:34.783Z,1021.77
2018-12-25T08:03:44.217Z,1021.78
2018-12-25T08:04:54.152Z,1021.87
2018-12-25T08:06:04.091Z,1021.95
2018-12-25T08:07:13.558Z,1021.88
2018-12-25T08:08:23.266Z,1021.95
2018-12-25T08:09:32.960Z,1021.93
2018-12-25T08:10:42.932Z,1021.91
2018-12-25T08:11:52.625Z,1021.94
2018-12-25T08:13:04.861Z,1021.85
2018-12-25T08:14:14.912Z,1021.94
2018-12-25T08:15:24.868Z,1021.99
2018-12-25T08:16:34.790Z,1022.03
2018-12-25T08:17:44.487Z,1022.05
2018-12-25T08:18:54.431Z,1021.9
2018-12-25T08:20:04.123Z,1022.06
2018-12-25T08:21:13.797Z,1022.07
2018-12-25T08:22:32.050Z,1022.03
2018-12-25T08:23:41.738Z,1021.91
2018-12-25T08:24:51.674Z,1022.05
2018-12-25T08:26:01.613Z,1021.93
2018-12-25T08:27:11.807Z,1022.01
2018-12-25T08:28:21.748Z,1022.08
2018-12-25T08:29:31.439Z,1022.01
2018-12-25T08:30:41.389Z,1022.03
2018-12-25T08:31:51.335Z,1021.91
2018-12-25T08:33:01.281Z,1022.06
2018-12-25T08:34:11.214Z,1022.2
2018-12-25T08:35:21.168Z,1022.07
2018-12-25T08:36:31.112Z,1022.05
2018-12-25T08:37:41.539Z,1021.93
2018-12-25T08:38:51.492Z,1022.13
2018-12-25T08:40:01.176Z,1022.04
2018-12-25T08:41:10.861Z,1022.01
2018-12-25T08:42:20.813Z,1021.97
2018-12-25T08:43:30.794Z,1021.89
2018-12-25T08:44:40.486Z,1021.89
2018-12-25T08:45:50.166Z,1021.86
2018-12-25T08:47:02.475Z,1021.89
2018-12-25T08:48:14.472Z,1021.92
2018-12-25T08:49:24.428Z,1021.97
2018-12-25T08:50:34.362Z,1021.98
2018-12-25T08:51:44.304Z,1021.95
2018-12-25T08:52:54.250Z,1021.88
2018-12-25T08:54:03.928Z,1022.09
2018-12-25T08:55:13.874Z,1021.88
2018-12-25T08:56:23.829Z,1021.79
2018-12-25T08:57:33.522Z,1021.91
2018-12-25T08:58:43.473Z,1021.75
2018-12-25T08:59:53.409Z,1021.89
2018-12-25T09:01:02.858Z,1021.81
2018-12-25T09:02:12.801Z,1021.87
2018-12-25T09:03:22.742Z,1021.9
2018-12-25T09:04:32.428Z,1021.99
2018-12-25T09:05:42.126Z,1021.89
2018-12-25T09:06:51.830Z,1021.98
2018-12-25T09:08:01.272Z,1022.09
2018-12-25T09:09:11.211Z,1022.09
2018-12-25T09:10:20.752Z,1022.07
2018-12-25T09:11:30.691Z,1022.17
2018-12-25T09:12:40.380Z,1022.18
2018-12-25T09:13:50.330Z,1022.14
2018-12-25T09:15:00.274Z,1022.14
2018-12-25T09:16:10.229Z,1022.14
2018-12-25T09:17:20.274Z,1022.2
2018-12-25T09:18:29.961Z,1022.25
2018-12-25T09:19:39.654Z,1022.1
2018-12-25T09:20:49.350Z,1022.02
2018-12-25T09:21:59.296Z,1022.25
2018-12-25T09:23:09.262Z,1022.25
2018-12-25T09:24:19.046Z,1022.24
2018-12-25T09:25:28.984Z,1022.21
2018-12-25T09:26:38.940Z,1022.14
2018-12-25T09:27:48.901Z,1022.05
2018-12-25T09:28:58.844Z,1022.08
2018-12-25T09:30:08.782Z,1022.01
2018-12-25T09:31:18.476Z,1021.99
2018-12-25T09:32:28.159Z,1021.94
2018-12-25T09:33:38.107Z,1022.09
2018-12-25T09:34:48.128Z,1022.08
2018-12-25T09:35:58.198Z,1021.93
2018-12-25T09:37:08.149Z,1022
2018-12-25T09:38:18.197Z,1021.98
2018-12-25T09:39:27.962Z,1021.98
2018-12-25T09:40:37.908Z,1022.06
2018-12-25T09:41:47.598Z,1022.14
2018-12-25T09:42:57.292Z,1022.18
2018-12-25T09:44:07.242Z,1022.12
2018-12-25T09:45:16.922Z,1022.01
2018-12-25T09:46:26.632Z,1022.09
2018-12-25T09:47:36.566Z,1022.06
2018-12-25T09:48:46.022Z,1022.06
2018-12-25T09:49:55.985Z,1022.01
2018-12-25T09:51:05.694Z,1021.98
2018-12-25T09:52:15.392Z,1022.03
2018-12-25T09:53:25.424Z,1021.97
2018-12-25T09:54:35.122Z,1022.02
2018-12-25T09:55:45.070Z,1021.89
2018-12-25T09:56:55.001Z,1021.91
2018-12-25T09:58:04.948Z,1022
2018-12-25T09:59:14.944Z,1021.92
2018-12-25T10:00:24.638Z,1022.03
2018-12-25T10:01:34.332Z,1022
2018-12-25T10:02:44.265Z,1022.05
2018-12-25T10:03:54.212Z,1021.97
2018-12-25T10:05:04.145Z,1022
2018-12-25T10:06:14.090Z,1022.01
2018-12-25T10:07:23.772Z,1022.1
2018-12-25T10:08:33.721Z,1022.04
2018-12-25T10:09:43.402Z,1021.99
2018-12-25T10:10:53.342Z,1021.99
2018-12-25T10:12:03.293Z,1021.95
2018-12-25T10:13:12.995Z,1022.02
2018-12-25T10:14:22.448Z,1022.15
2018-12-25T10:15:32.144Z,1022.09
2018-12-25T10:16:42.088Z,1022.01
2018-12-25T10:17:52.841Z,1021.95
2018-12-25T10:19:02.537Z,1022.45
2018-12-25T10:20:11.990Z,1022.1
2018-12-25T10:21:21.939Z,1022.15
2018-12-25T10:22:31.979Z,1022.05
2018-12-25T10:23:41.672Z,1022.01
2018-12-25T10:24:51.481Z,1021.93
2018-12-25T10:26:01.176Z,1022.1
2018-12-25T10:27:11.129Z,1022.11
2018-12-25T10:28:20.573Z,1022.26
2018-12-25T10:29:30.272Z,1021.95
2018-12-25T10:30:39.970Z,1021.9
2018-12-25T10:31:49.913Z,1021.95
2018-12-25T10:32:59.857Z,1021.92
2018-12-25T10:34:09.293Z,1021.86
2018-12-25T10:35:19.246Z,1021.97
2018-12-25T10:36:29.212Z,1021.9
2018-12-25T10:37:40.489Z,1021.96
2018-12-25T10:38:50.677Z,1022
2018-12-25T10:40:00.682Z,1022.06
2018-12-25T10:41:10.651Z,1022.06
2018-12-25T10:42:20.341Z,1022.06
2018-12-25T10:43:30.034Z,1021.97
2018-12-25T10:44:40.228Z,1022.03
2018-12-25T10:45:49.927Z,1021.95
2018-12-25T10:46:59.872Z,1022.04
2018-12-25T10:48:09.818Z,1021.96
2018-12-25T10:49:19.254Z,1021.88
2018-12-25T10:50:28.968Z,1021.93
2018-12-25T10:51:38.926Z,1021.91
2018-12-25T10:52:48.732Z,1021.86
2018-12-25T10:53:58.428Z,1021.84
2018-12-25T10:55:08.371Z,1021.92
2018-12-25T10:56:18.323Z,1021.94
2018-12-25T10:57:28.306Z,1021.96
2018-12-25T10:58:37.753Z,1021.89
2018-12-25T10:59:47.445Z,1021.84
2018-12-25T11:00:57.126Z,1022.16
2018-12-25T11:02:07.177Z,1021.88
2018-12-25T11:03:17.131Z,1022.03
2018-12-25T11:04:27.088Z,1022
2018-12-25T11:05:36.795Z,1021.84
2018-12-25T11:06:46.483Z,1021.96
2018-12-25T11:07:56.424Z,1021.87
2018-12-25T11:09:06.134Z,1022
2018-12-25T11:10:16.999Z,1022.02
2018-12-25T11:11:26.677Z,1021.9
2018-12-25T11:12:36.360Z,1021.98
2018-12-25T11:13:46.042Z,1021.63
2018-12-25T11:14:56.221Z,1021.94
2018-12-25T11:16:05.997Z,1021.78
2018-12-25T11:17:15.932Z,1021.72
2018-12-25T11:18:25.646Z,1021.84
2018-12-25T11:19:35.332Z,1021.83
2018-12-25T11:20:45.299Z,1021.77
2018-12-25T11:21:55.254Z,1021.9
2018-12-25T11:23:05.227Z,1021.81
2018-12-25T11:24:14.938Z,1021.84
2018-12-25T11:25:24.897Z,1021.88
2018-12-25T11:26:34.597Z,1021.75
2018-12-25T11:27:44.301Z,1021.89
2018-12-25T11:28:54.264Z,1021.77
2018-12-25T11:30:03.734Z,1021.85
2018-12-25T11:31:13.681Z,1021.79
2018-12-25T11:32:23.356Z,1021.85
2018-12-25T11:33:33.054Z,1021.92
2018-12-25T11:34:42.246Z,1021.91
2018-12-25T11:35:52.030Z,1021.9
2018-12-25T11:37:01.729Z,1021.79
2018-12-25T11:38:11.426Z,1021.87
2018-12-25T11:39:21.468Z,1021.93
2018-12-25T11:40:31.404Z,1022.07
2018-12-25T11:41:41.355Z,1021.83
2018-12-25T11:42:51.046Z,1021.78
2018-12-25T11:44:00.993Z,1021.92
2018-12-25T11:45:10.950Z,1022.11
2018-12-25T11:46:20.636Z,1021.98
2018-12-25T11:47:30.570Z,1022.28
2018-12-25T11:48:40.508Z,1021.82
2018-12-25T11:49:49.977Z,1021.83
2018-12-25T11:50:59.430Z,1022.02
2018-12-25T11:52:09.123Z,1021.91
2018-12-25T11:53:18.829Z,1022.02
2018-12-25T11:54:28.527Z,1021.85
2018-12-25T11:55:38.221Z,1021.89
2018-12-25T11:56:47.917Z,1021.95
2018-12-25T11:57:57.878Z,1021.92
2018-12-25T11:59:07.669Z,1022.13
2018-12-25T12:00:17.369Z,1022.03
2018-12-25T12:01:27.054Z,1021.81
2018-12-25T12:02:36.749Z,1021.95
2018-12-25T12:03:46.205Z,1021.9
2018-12-25T12:04:56.148Z,1021.87
2018-12-25T12:06:06.111Z,1021.91
2018-12-25T12:07:15.797Z,1021.9
2018-12-25T12:08:25.741Z,1021.79
2018-12-25T12:09:35.446Z,1021.76
2018-12-25T12:10:45.137Z,1021.9
2018-12-25T12:11:55.110Z,1021.97
2018-12-25T12:13:04.800Z,1021.88
2018-12-25T12:14:13.985Z,1021.85
2018-12-25T12:15:23.943Z,1022.03
2018-12-25T12:16:33.893Z,1021.97
2018-12-25T12:17:43.837Z,1021.89
2018-12-25T12:18:53.834Z,1021.85
2018-12-25T12:20:03.788Z,1021.88
2018-12-25T12:21:13.464Z,1021.78
2018-12-25T12:22:24.021Z,1021.76
2018-12-25T12:23:42.108Z,1021.88
2018-12-25T12:24:52.071Z,1021.8
2018-12-25T12:26:01.789Z,1021.73
2018-12-25T12:27:11.739Z,1022.01
2018-12-25T12:28:21.684Z,1021.86
2018-12-25T12:29:31.633Z,1021.94
2018-12-25T12:30:41.351Z,1022.04
2018-12-25T12:31:51.297Z,1021.97
2018-12-25T12:33:01.249Z,1021.94
2018-12-25T12:34:10.945Z,1022.07
2018-12-25T12:35:20.891Z,1021.9
2018-12-25T12:36:30.584Z,1021.85
2018-12-25T12:37:40.520Z,1021.8
2018-12-25T12:38:50.497Z,1021.84
2018-12-25T12:40:00.563Z,1021.8
2018-12-25T12:41:10.576Z,1021.84
2018-12-25T12:42:20.280Z,1021.95
2018-12-25T12:43:29.968Z,1021.81
2018-12-25T12:44:39.913Z,1022.02
2018-12-25T12:45:49.855Z,1021.84
2018-12-25T12:46:59.555Z,1021.85
2018-12-25T12:48:09.287Z,1021.91
2018-12-25T12:49:18.747Z,1021.94
2018-12-25T12:50:28.451Z,1021.99
2018-12-25T12:51:37.895Z,1021.86
2018-12-25T12:52:47.849Z,1021.93
2018-12-25T12:53:57.788Z,1021.95
2018-12-25T12:55:07.757Z,1021.86
2018-12-25T12:56:17.690Z,1021.93
2018-12-25T12:57:27.628Z,1021.97
2018-12-25T12:58:39.552Z,1021.89
2018-12-25T12:59:49.500Z,1021.9
2018-12-25T13:00:59.467Z,1021.96
2018-12-25T13:02:09.157Z,1021.83
2018-12-25T13:03:19.123Z,1021.81
2018-12-25T13:04:29.085Z,1021.86
2018-12-25T13:05:39.148Z,1022.03
2018-12-25T13:06:49.084Z,1021.82
2018-12-25T13:07:59.030Z,1021.93
2018-12-25T13:09:08.735Z,1021.87
2018-12-25T13:10:18.679Z,1021.9
2018-12-25T13:11:28.368Z,1021.84
2018-12-25T13:12:38.305Z,1021.92
2018-12-25T13:13:48.011Z,1021.92
2018-12-25T13:14:57.737Z,1021.93
2018-12-25T13:16:07.435Z,1021.85
2018-12-25T13:17:17.191Z,1021.97
2018-12-25T13:18:27.118Z,1021.9
2018-12-25T13:19:37.050Z,1021.9
2018-12-25T13:20:46.997Z,1021.81
2018-12-25T13:21:56.694Z,1021.84
2018-12-25T13:23:06.651Z,1021.98
2018-12-25T13:24:16.343Z,1022.02
2018-12-25T13:25:27.503Z,1021.95
2018-12-25T13:26:37.198Z,1021.95
2018-12-25T13:27:47.146Z,1021.96
2018-12-25T13:28:57.090Z,1022.05
2018-12-25T13:30:07.037Z,1022
2018-12-25T13:31:16.733Z,1021.96
2018-12-25T13:32:26.695Z,1021.9
2018-12-25T13:33:36.651Z,1022.06
2018-12-25T13:34:46.591Z,1022.04
2018-12-25T13:35:58.083Z,1021.92
2018-12-25T13:37:08.026Z,1021.91
2018-12-25T13:38:17.754Z,1021.89
2018-12-25T13:39:27.459Z,1021.87
2018-12-25T13:40:37.136Z,1021.96
2018-12-25T13:41:47.088Z,1021.94
2018-12-25T13:42:57.032Z,1021.99
2018-12-25T13:44:06.730Z,1021.99
2018-12-25T13:45:16.419Z,1021.98
2018-12-25T13:46:26.369Z,1022.04
2018-12-25T13:47:35.821Z,1022.03
2018-12-25T13:48:45.752Z,1022.02
2018-12-25T13:49:55.445Z,1022.08
2018-12-25T13:51:05.216Z,1022.12
2018-12-25T13:52:14.895Z,1022.06
2018-12-25T13:53:24.832Z,1022.3
2018-12-25T13:54:34.520Z,1022.04
2018-12-25T13:55:44.462Z,1021.99
2018-12-25T13:56:54.152Z,1022.06
2018-12-25T13:58:04.116Z,1021.98
2018-12-25T13:59:14.052Z,1022.14
2018-12-25T14:00:23.995Z,1022.09
2018-12-25T14:01:33.924Z,1022.05
2018-12-25T14:02:43.632Z,1022.11
2018-12-25T14:03:53.581Z,1022.05
2018-12-25T14:05:03.520Z,1022.04
2018-12-25T14:06:13.488Z,1022.08
2018-12-25T14:07:23.175Z,1022.07
2018-12-25T14:08:33.127Z,1022.15
2018-12-25T14:09:43.086Z,1022.21